Terminal Aerodrome Forecast
Issued by NWS

Home | Current Version | Previous Version | Graphics & Text | Print | Product List | Glossary On
Versions: 1 2 3 4 5 6 7 8 9 10 11 12
000
FTUS43 KBIS 311700
TAFDIK
TAF
KDIK 311722Z 3118/0118 18012KT P6SM SCT100
     FM010500 19013KT P6SM BKN120 WS010/20035KT
     FM011100 29025G35KT P6SM BKN120=

USA.gov is the U.S. government's official web portal to all federal, state and local government web resources and services.